This is the latest recevied weather packets stored in our database for station/object OE6JVE-13. If no packets are shown the sender has not sent any weather packets the latest 10 day(s).
| Time | Temp. | Humidity | Pressure | Rain* | Wind** | Luminosity | Snow |
|---|---|---|---|---|---|---|---|
| 1777976755 | 24.44° C | 28% | 1003.1 hPa | 0 mm | - | - | - |
| 1777976164 | 24.44° C | 26% | 1003.1 hPa | 0 mm | - | - | - |
| 1777975572 | 23.89° C | 28% | 1003.2 hPa | 0 mm | - | - | - |
| 1777974980 | 23.33° C | 29% | 1003.2 hPa | 0 mm | - | - | - |
| 1777974322 | 24.44° C | 26% | 1003.2 hPa | 0 mm | - | - | - |
| 1777973730 | 25° C | 28% | 1003.1 hPa | 0 mm | - | - | - |
| 1777973138 | 25° C | 30% | 1003.3 hPa | 0 mm | - | - | - |
| 1777972546 | 23.89° C | 31% | 1003.3 hPa | 0 mm | - | - | - |
| 1777971954 | 23.89° C | 30% | 1003.5 hPa | 0 mm | - | - | - |
| 1777971362 | 23.33° C | 31% | 1003.7 hPa | 0 mm | - | - | - |
| 1777970770 | 22.78° C | 31% | 1003.7 hPa | 0 mm | - | - | - |
| 1777970177 | 22.22° C | 34% | 1003.7 hPa | 0 mm | - | - | - |
| 1777969520 | 22.22° C | 34% | 1003.8 hPa | 0 mm | - | - | - |
| 1777968927 | 22.22° C | 31% | 1003.9 hPa | 0 mm | - | - | - |
| 1777968335 | 21.67° C | 30% | 1003.9 hPa | 0 mm | - | - | - |
| 1777967743 | 21.67° C | 30% | 1004.1 hPa | 0 mm | - | - | - |
| 1777967151 | 21.67° C | 31% | 1004 hPa | 0 mm | - | - | - |
| 1777966559 | 21.11° C | 31% | 1004.1 hPa | 0 mm | - | - | - |
| 1777965967 | 20.56° C | 32% | 1004.1 hPa | 0 mm | - | - | - |
| 1777965375 | 20° C | 33% | 1004.1 hPa | 0 mm | - | - | - |
| 1777964717 | 19.44° C | 38% | 1004.2 hPa | 0 mm | - | - | - |
| 1777964125 | 18.33° C | 41% | 1004.3 hPa | 0 mm | - | - | - |
| 1777963533 | 18.89° C | 36% | 1004.3 hPa | 0 mm | - | - | - |
| 1777962941 | 18.89° C | 35% | 1004.2 hPa | 0 mm | - | - | - |
| 1777962348 | 19.44° C | 36% | 1004.2 hPa | 0 mm | - | - | - |
* Rain latest hour (hover to see other rain measurements)
** Current wind speed in m/s (hover to see current wind gust speed)